createdAt,value
2023-06-10T00:01:56.461Z,17.68
2023-06-10T00:04:23.671Z,17.55
2023-06-10T00:06:50.669Z,17.61
2023-06-10T00:09:17.280Z,17.64
2023-06-10T00:11:44.006Z,17.66
2023-06-10T00:14:10.626Z,17.60
2023-06-10T00:16:37.454Z,17.64
2023-06-10T00:19:04.958Z,17.60
2023-06-10T00:21:38.520Z,17.67
2023-06-10T00:24:13.232Z,17.66
2023-06-10T00:26:41.665Z,17.62
2023-06-10T00:29:08.933Z,17.75
2023-06-10T00:31:36.502Z,17.70
2023-06-10T00:34:03.407Z,17.79
2023-06-10T00:36:30.959Z,17.78
2023-06-10T00:38:58.529Z,17.71
2023-06-10T00:41:25.300Z,17.79
2023-06-10T00:43:51.873Z,17.77
2023-06-10T00:46:19.566Z,17.80
2023-06-10T00:48:47.577Z,17.84
2023-06-10T00:51:14.267Z,17.75
2023-06-10T00:53:42.468Z,17.70
2023-06-10T00:56:09.970Z,17.65
2023-06-10T00:58:37.053Z,17.61
2023-06-10T01:01:05.279Z,17.55
2023-06-10T01:03:33.475Z,17.63
2023-06-10T01:06:25.597Z,17.65
2023-06-10T01:09:02.125Z,17.67
2023-06-10T01:11:48.688Z,17.63
2023-06-10T01:14:18.150Z,17.67
2023-06-10T01:16:46.898Z,17.57
2023-06-10T01:19:18.790Z,17.50
2023-06-10T01:21:49.802Z,17.47
2023-06-10T01:24:19.533Z,17.47
2023-06-10T01:26:51.163Z,17.53
2023-06-10T01:29:28.195Z,17.51
2023-06-10T01:32:15.489Z,17.40
2023-06-10T01:34:44.461Z,17.39
2023-06-10T01:37:15.066Z,17.43
2023-06-10T01:39:43.235Z,17.31
2023-06-10T01:42:12.579Z,17.29
2023-06-10T01:44:40.799Z,17.41
2023-06-10T01:47:07.432Z,17.28
2023-06-10T01:49:34.053Z,17.45
2023-06-10T01:52:00.753Z,17.34
2023-06-10T01:54:27.346Z,17.39
2023-06-10T01:56:53.944Z,17.31
2023-06-10T01:59:20.541Z,17.27
2023-06-10T02:01:47.103Z,17.30
2023-06-10T02:04:13.644Z,17.21
2023-06-10T02:06:40.214Z,17.23
2023-06-10T02:09:07.345Z,17.21
2023-06-10T02:11:33.881Z,17.19
2023-06-10T02:14:00.801Z,17.23
2023-06-10T02:16:27.759Z,17.21
2023-06-10T02:18:54.457Z,17.18
2023-06-10T02:21:21.091Z,17.30
2023-06-10T02:23:47.672Z,17.23
2023-06-10T02:26:14.251Z,17.24
2023-06-10T02:28:44.011Z,17.25
2023-06-10T02:31:10.706Z,17.33
2023-06-10T02:33:41.387Z,17.28
2023-06-10T02:36:08.079Z,17.25
2023-06-10T02:38:34.664Z,17.18
2023-06-10T02:41:01.201Z,17.09
2023-06-10T02:43:27.804Z,17.04
2023-06-10T02:45:54.421Z,17.13
2023-06-10T02:48:21.032Z,17.18
2023-06-10T02:50:47.737Z,17.25
2023-06-10T02:53:14.335Z,17.23
2023-06-10T02:55:42.261Z,17.17
2023-06-10T02:58:08.861Z,17.02
2023-06-10T03:00:35.444Z,17.00
2023-06-10T03:03:04.785Z,17.13
2023-06-10T03:05:31.583Z,17.06
2023-06-10T03:07:58.116Z,16.94
2023-06-10T03:10:24.723Z,16.88
2023-06-10T03:12:51.278Z,16.91
2023-06-10T03:15:17.862Z,16.91
2023-06-10T03:17:44.467Z,16.81
2023-06-10T03:20:11.650Z,16.95
2023-06-10T03:22:39.306Z,16.90
2023-06-10T03:25:07.370Z,16.86
2023-06-10T03:27:34.537Z,16.94
2023-06-10T03:30:01.353Z,16.92
2023-06-10T03:32:27.994Z,16.77
2023-06-10T03:34:58.283Z,16.83
2023-06-10T03:37:25.856Z,16.76
2023-06-10T03:39:52.411Z,16.88
2023-06-10T03:42:18.964Z,16.75
2023-06-10T03:44:45.560Z,16.69
2023-06-10T03:47:13.948Z,16.70
2023-06-10T03:49:41.489Z,16.73
2023-06-10T03:52:08.354Z,16.67
2023-06-10T03:54:35.926Z,16.59
2023-06-10T03:57:02.634Z,16.62
2023-06-10T03:59:29.857Z,16.59
2023-06-10T04:01:56.548Z,16.49
2023-06-10T04:04:24.673Z,16.44
2023-06-10T04:06:51.817Z,16.55
2023-06-10T04:09:18.540Z,16.56
2023-06-10T04:11:45.191Z,16.59
2023-06-10T04:14:11.866Z,16.62
2023-06-10T04:16:39.616Z,16.64
2023-06-10T04:19:06.844Z,16.58
2023-06-10T04:21:34.107Z,16.63
2023-06-10T04:24:00.800Z,16.59
2023-06-10T04:26:28.261Z,16.64
2023-06-10T04:28:54.930Z,16.65
2023-06-10T04:31:21.947Z,16.64
2023-06-10T04:33:48.567Z,16.75
2023-06-10T04:36:15.857Z,16.76
2023-06-10T04:38:42.641Z,16.64
2023-06-10T04:41:09.649Z,16.61
2023-06-10T04:43:36.247Z,16.58
2023-06-10T04:46:03.019Z,16.70
2023-06-10T04:48:30.152Z,16.62
2023-06-10T04:50:57.848Z,16.66
2023-06-10T04:53:24.397Z,16.66
2023-06-10T04:55:51.038Z,16.58
2023-06-10T04:58:17.608Z,16.64
2023-06-10T05:00:44.887Z,16.75
2023-06-10T05:03:12.030Z,16.77
2023-06-10T05:05:38.661Z,16.73
2023-06-10T05:08:07.700Z,16.76
2023-06-10T05:10:35.442Z,16.71
2023-06-10T05:13:02.038Z,16.81
2023-06-10T05:15:28.660Z,16.85
2023-06-10T05:17:58.536Z,17.03
2023-06-10T05:20:26.354Z,17.17
2023-06-10T05:22:53.151Z,17.19
2023-06-10T05:25:19.700Z,17.27
2023-06-10T05:27:46.283Z,17.44
2023-06-10T05:30:13.838Z,17.51
2023-06-10T05:32:40.471Z,17.57
2023-06-10T05:35:07.901Z,17.61
2023-06-10T05:37:37.927Z,17.76
2023-06-10T05:40:05.692Z,17.88
2023-06-10T05:42:32.318Z,17.97
2023-06-10T05:44:58.903Z,17.99
2023-06-10T05:47:25.496Z,18.09
2023-06-10T05:49:52.941Z,18.05
2023-06-10T05:52:20.009Z,17.97
2023-06-10T05:54:46.709Z,17.98
2023-06-10T05:57:14.104Z,18.00
2023-06-10T05:59:40.697Z,18.06
2023-06-10T06:02:07.431Z,18.07
2023-06-10T06:04:35.174Z,18.05
2023-06-10T06:07:01.883Z,18.07
2023-06-10T06:09:28.424Z,18.00
2023-06-10T06:11:55.045Z,17.95
2023-06-10T06:14:21.626Z,17.98
2023-06-10T06:16:48.187Z,18.02
2023-06-10T06:19:15.065Z,18.06
2023-06-10T06:21:41.935Z,18.21
2023-06-10T06:24:08.813Z,18.34
2023-06-10T06:26:35.680Z,18.53
2023-06-10T06:29:02.270Z,18.61
2023-06-10T06:31:28.865Z,18.69
2023-06-10T06:33:55.502Z,18.65
2023-06-10T06:36:22.082Z,18.77
2023-06-10T06:38:48.629Z,18.85
2023-06-10T06:41:15.202Z,18.90
2023-06-10T06:43:43.394Z,18.91
2023-06-10T06:46:10.391Z,18.89
2023-06-10T06:48:37.052Z,18.80
2023-06-10T06:51:03.904Z,18.78
2023-06-10T06:53:32.258Z,18.81
2023-06-10T06:55:59.080Z,18.84
2023-06-10T06:58:25.799Z,18.86
2023-06-10T07:00:52.393Z,18.91
2023-06-10T07:03:18.998Z,19.01
2023-06-10T07:05:45.616Z,19.03
2023-06-10T07:08:13.218Z,18.98
2023-06-10T07:10:39.806Z,18.99
2023-06-10T07:13:06.337Z,19.03
2023-06-10T07:15:34.626Z,19.03
2023-06-10T07:18:01.302Z,18.99
2023-06-10T07:20:27.905Z,19.00
2023-06-10T07:22:54.856Z,19.07
2023-06-10T07:25:21.488Z,19.13
2023-06-10T07:27:48.066Z,19.16
2023-06-10T07:30:14.822Z,19.23
2023-06-10T07:32:41.414Z,19.26
2023-06-10T07:35:11.486Z,19.30
2023-06-10T07:37:38.562Z,19.38
2023-06-10T07:40:06.129Z,19.52
2023-06-10T07:42:38.876Z,19.51
2023-06-10T07:45:06.100Z,19.55
2023-06-10T07:47:35.666Z,19.55
2023-06-10T07:50:02.809Z,19.64
2023-06-10T07:52:29.908Z,19.71
2023-06-10T07:54:56.513Z,19.77
2023-06-10T07:57:23.238Z,19.90
2023-06-10T07:59:50.320Z,19.94
2023-06-10T08:02:17.021Z,20.06
2023-06-10T08:04:43.722Z,20.14
2023-06-10T08:07:10.329Z,20.25
2023-06-10T08:09:37.032Z,20.25
2023-06-10T08:12:04.041Z,20.30
2023-06-10T08:14:30.976Z,20.33
2023-06-10T08:16:57.741Z,20.47
2023-06-10T08:19:24.404Z,20.51
2023-06-10T08:21:51.070Z,20.57
2023-06-10T08:24:19.984Z,20.67
2023-06-10T08:26:46.646Z,20.67
2023-06-10T08:29:14.576Z,20.76
2023-06-10T08:31:45.355Z,20.88
2023-06-10T08:34:12.930Z,20.99
2023-06-10T08:36:39.612Z,20.96
2023-06-10T08:39:06.354Z,20.98
2023-06-10T08:41:38.043Z,21.02
2023-06-10T08:44:13.811Z,21.01
2023-06-10T08:46:45.917Z,21.01
2023-06-10T08:49:19.572Z,21.22
2023-06-10T08:51:46.431Z,21.39
2023-06-10T08:54:20.901Z,21.43
2023-06-10T08:56:51.083Z,21.52
2023-06-10T08:59:18.316Z,21.55
2023-06-10T09:01:46.478Z,21.53
2023-06-10T09:04:13.486Z,21.69
2023-06-10T09:06:41.486Z,21.69
2023-06-10T09:09:08.372Z,21.73
2023-06-10T09:11:35.070Z,21.86
2023-06-10T09:14:02.187Z,21.86
2023-06-10T09:16:29.524Z,21.94
2023-06-10T09:18:56.966Z,22.00
2023-06-10T09:21:24.562Z,22.01
2023-06-10T09:23:51.803Z,22.05
2023-06-10T09:26:19.393Z,22.01
2023-06-10T09:28:49.114Z,22.14
2023-06-10T09:31:19.454Z,22.26
2023-06-10T09:33:46.343Z,22.22
2023-06-10T09:36:22.240Z,22.24
2023-06-10T09:38:51.824Z,22.30
2023-06-10T09:41:18.509Z,22.38
2023-06-10T09:43:47.671Z,22.49
2023-06-10T09:46:21.175Z,22.74
2023-06-10T09:48:49.051Z,22.75
2023-06-10T09:51:18.308Z,22.76
2023-06-10T09:53:50.388Z,22.87
2023-06-10T09:56:17.220Z,22.90
2023-06-10T09:58:44.666Z,22.88
2023-06-10T10:01:13.298Z,23.00
2023-06-10T10:03:53.186Z,22.94
2023-06-10T10:06:21.223Z,22.95
2023-06-10T10:08:50.355Z,23.10
2023-06-10T10:11:28.114Z,23.13
2023-06-10T10:13:55.272Z,23.29
2023-06-10T10:16:30.484Z,23.34
2023-06-10T10:19:02.730Z,23.32
2023-06-10T10:21:36.828Z,23.47
2023-06-10T10:24:13.784Z,23.46
2023-06-10T10:26:41.384Z,23.44
2023-06-10T10:29:26.186Z,23.41
2023-06-10T10:31:56.079Z,23.37
2023-06-10T10:34:36.300Z,23.43
2023-06-10T10:37:03.233Z,23.51
2023-06-10T10:39:31.270Z,23.69
2023-06-10T10:41:58.724Z,23.88
2023-06-10T10:44:26.429Z,23.89
2023-06-10T10:46:55.211Z,23.95
2023-06-10T10:49:23.878Z,23.87
2023-06-10T10:52:13.051Z,23.88
2023-06-10T10:54:45.127Z,24.19
2023-06-10T10:57:20.251Z,24.33
2023-06-10T10:59:49.742Z,24.27
2023-06-10T11:02:44.469Z,24.28
2023-06-10T11:05:15.345Z,24.19
2023-06-10T11:07:53.405Z,24.20
2023-06-10T11:10:30.576Z,24.25
2023-06-10T11:12:57.920Z,24.76
2023-06-10T11:15:26.900Z,24.63
2023-06-10T11:18:12.806Z,24.59
2023-06-10T11:20:51.592Z,24.76
2023-06-10T11:23:30.299Z,24.75
2023-06-10T11:26:38.329Z,24.85
2023-06-10T11:29:06.939Z,25.09
2023-06-10T11:31:40.919Z,25.16
2023-06-10T11:34:09.256Z,25.22
2023-06-10T11:36:41.444Z,25.21
2023-06-10T11:39:08.328Z,25.30
2023-06-10T11:41:36.294Z,25.36
2023-06-10T11:44:09.589Z,25.33
2023-06-10T11:46:37.061Z,25.24
2023-06-10T11:49:05.200Z,25.16
2023-06-10T11:51:45.228Z,25.34
2023-06-10T11:54:11.899Z,25.37
2023-06-10T11:56:38.486Z,25.33
2023-06-10T11:59:08.626Z,25.59
2023-06-10T12:01:40.077Z,25.65
2023-06-10T12:04:14.032Z,25.84
2023-06-10T12:06:49.049Z,25.69
2023-06-10T12:09:26.802Z,25.77
2023-06-10T12:12:03.960Z,25.64
2023-06-10T12:14:51.649Z,25.59
2023-06-10T12:17:18.250Z,25.70
2023-06-10T12:19:44.881Z,25.74
2023-06-10T12:22:11.560Z,25.82
2023-06-10T12:25:02.608Z,25.86
2023-06-10T12:27:30.920Z,25.87
2023-06-10T12:30:06.158Z,25.94
2023-06-10T12:32:46.662Z,25.99
2023-06-10T12:35:27.635Z,26.19
2023-06-10T12:38:08.055Z,26.35
2023-06-10T12:40:37.979Z,26.26
2023-06-10T12:43:05.085Z,26.30
2023-06-10T12:45:34.147Z,26.36
2023-06-10T12:48:11.413Z,26.38
2023-06-10T12:50:43.119Z,26.41
2023-06-10T12:53:12.304Z,26.61
2023-06-10T12:55:39.804Z,26.56
2023-06-10T12:58:06.825Z,26.61
2023-06-10T13:00:35.826Z,26.74
2023-06-10T13:03:03.527Z,26.67
2023-06-10T13:05:30.625Z,26.68
2023-06-10T13:07:57.462Z,26.72
2023-06-10T13:10:25.958Z,26.46
2023-06-10T13:12:53.689Z,26.68
2023-06-10T13:15:20.463Z,26.87
2023-06-10T13:17:50.996Z,27.00
2023-06-10T13:20:18.309Z,26.81
2023-06-10T13:22:45.009Z,26.66
2023-06-10T13:25:12.652Z,26.32
2023-06-10T13:27:40.718Z,26.43
2023-06-10T13:30:08.978Z,26.50
2023-06-10T13:32:37.007Z,26.60
2023-06-10T13:35:05.336Z,26.61
2023-06-10T13:37:32.316Z,26.60
2023-06-10T13:39:58.940Z,26.89
2023-06-10T13:42:27.564Z,26.80
2023-06-10T13:44:54.224Z,26.84
2023-06-10T13:47:22.115Z,26.87
2023-06-10T13:49:48.764Z,26.68
2023-06-10T13:52:15.393Z,26.74
2023-06-10T13:54:42.150Z,26.87
2023-06-10T13:57:11.538Z,26.92
2023-06-10T13:59:38.406Z,27.00
2023-06-10T14:02:05.691Z,27.05
2023-06-10T14:04:32.323Z,27.08
2023-06-10T14:06:58.957Z,27.22
2023-06-10T14:09:25.716Z,27.38
2023-06-10T14:11:53.041Z,27.03
2023-06-10T14:14:20.646Z,26.90
2023-06-10T14:16:47.432Z,26.94
2023-06-10T14:19:14.117Z,27.05
2023-06-10T14:21:40.924Z,27.23
2023-06-10T14:24:07.946Z,27.18
2023-06-10T14:26:34.555Z,27.11
2023-06-10T14:29:01.171Z,27.05
2023-06-10T14:31:27.823Z,27.09
2023-06-10T14:33:54.393Z,27.46
2023-06-10T14:36:21.078Z,27.71
2023-06-10T14:38:47.685Z,28.03
2023-06-10T14:41:14.688Z,28.27
2023-06-10T14:43:41.330Z,28.66
2023-06-10T14:46:08.015Z,28.78
2023-06-10T14:48:34.704Z,29.18
2023-06-10T14:51:01.378Z,29.41
2023-06-10T14:53:28.744Z,29.76
2023-06-10T14:55:58.622Z,29.86
2023-06-10T14:58:25.450Z,30.45
2023-06-10T15:00:52.549Z,30.16
2023-06-10T15:03:19.599Z,30.20
2023-06-10T15:05:46.850Z,30.02
2023-06-10T15:08:13.572Z,29.69
2023-06-10T15:10:40.820Z,29.91
2023-06-10T15:13:07.418Z,30.20
2023-06-10T15:15:34.413Z,30.20
2023-06-10T15:18:01.421Z,29.86
2023-06-10T15:20:28.299Z,29.89
2023-06-10T15:22:55.144Z,29.50
2023-06-10T15:25:30.837Z,29.23
2023-06-10T15:27:58.451Z,29.51
2023-06-10T15:30:25.143Z,29.51
2023-06-10T15:32:52.160Z,29.36
2023-06-10T15:35:19.787Z,28.94
2023-06-10T15:37:47.789Z,28.65
2023-06-10T15:40:15.155Z,29.09
2023-06-10T15:42:42.385Z,29.49
2023-06-10T15:45:09.568Z,29.61
2023-06-10T15:47:36.450Z,29.96
2023-06-10T15:50:03.593Z,29.71
2023-06-10T15:52:32.931Z,28.62
2023-06-10T15:54:59.639Z,28.18
2023-06-10T15:57:27.341Z,28.68
2023-06-10T15:59:54.314Z,28.90
2023-06-10T16:02:21.242Z,30.29
2023-06-10T16:04:49.170Z,31.26
2023-06-10T16:07:16.227Z,32.09
2023-06-10T16:09:42.993Z,30.26
2023-06-10T16:12:09.835Z,30.39
2023-06-10T16:14:36.442Z,30.55
2023-06-10T16:17:03.750Z,31.74
2023-06-10T16:19:31.068Z,31.95
2023-06-10T16:21:57.619Z,32.58
2023-06-10T16:24:24.965Z,32.23
2023-06-10T16:26:54.939Z,31.55
2023-06-10T16:29:21.823Z,31.28
2023-06-10T16:31:50.777Z,30.53
2023-06-10T16:34:17.960Z,31.35
2023-06-10T16:36:44.676Z,31.62
2023-06-10T16:39:11.516Z,30.70
2023-06-10T16:41:40.256Z,31.66
2023-06-10T16:44:06.863Z,32.38
2023-06-10T16:46:33.490Z,32.38
2023-06-10T16:49:00.182Z,32.64
2023-06-10T16:51:27.806Z,32.89
2023-06-10T16:53:54.548Z,32.73
2023-06-10T16:56:22.811Z,33.21
2023-06-10T16:58:49.522Z,33.08
2023-06-10T17:01:17.182Z,32.62
2023-06-10T17:03:44.277Z,32.20
2023-06-10T17:06:12.190Z,30.85
2023-06-10T17:08:38.789Z,30.80
2023-06-10T17:11:05.835Z,30.27
2023-06-10T17:13:32.682Z,30.09
2023-06-10T17:16:02.016Z,29.75
2023-06-10T17:18:28.929Z,29.60
2023-06-10T17:20:55.763Z,29.14
2023-06-10T17:23:23.738Z,28.71
2023-06-10T17:25:50.653Z,28.24
2023-06-10T17:28:17.582Z,28.24
2023-06-10T17:30:46.504Z,28.36
2023-06-10T17:33:13.357Z,28.57
2023-06-10T17:35:40.341Z,28.73
2023-06-10T17:38:06.991Z,28.75
2023-06-10T17:40:33.863Z,28.72
2023-06-10T17:43:00.495Z,28.55
2023-06-10T17:45:27.112Z,28.55
2023-06-10T17:47:54.432Z,28.67
2023-06-10T17:50:21.305Z,28.75
2023-06-10T17:52:48.117Z,29.14
2023-06-10T17:55:14.832Z,29.08
2023-06-10T17:57:41.741Z,29.10
2023-06-10T18:00:09.001Z,29.20
2023-06-10T18:02:36.577Z,29.43
2023-06-10T18:05:03.578Z,29.55
2023-06-10T18:07:33.037Z,28.99
2023-06-10T18:09:59.910Z,28.63
2023-06-10T18:12:35.031Z,28.35
2023-06-10T18:15:03.509Z,28.20
2023-06-10T18:17:31.895Z,28.17
2023-06-10T18:20:01.880Z,28.06
2023-06-10T18:22:31.193Z,27.65
2023-06-10T18:25:06.123Z,27.80
2023-06-10T18:27:34.390Z,27.64
2023-06-10T18:30:02.519Z,27.68
2023-06-10T18:32:29.477Z,27.65
2023-06-10T18:34:56.577Z,27.63
2023-06-10T18:37:23.629Z,27.56
2023-06-10T18:39:50.466Z,27.60
2023-06-10T18:42:17.549Z,27.47
2023-06-10T18:44:44.387Z,27.29
2023-06-10T18:47:11.170Z,27.29
2023-06-10T18:49:38.939Z,27.19
2023-06-10T18:52:07.455Z,27.20
2023-06-10T18:54:36.028Z,27.12
2023-06-10T18:57:03.022Z,27.01
2023-06-10T18:59:29.835Z,26.92
2023-06-10T19:01:56.708Z,26.95
2023-06-10T19:04:23.445Z,26.82
2023-06-10T19:06:50.340Z,26.78
2023-06-10T19:09:17.346Z,26.72
2023-06-10T19:11:44.033Z,26.64
2023-06-10T19:14:11.668Z,26.62
2023-06-10T19:16:38.467Z,26.61
2023-06-10T19:19:05.129Z,26.52
2023-06-10T19:21:31.872Z,26.45
2023-06-10T19:23:59.702Z,26.48
2023-06-10T19:26:26.359Z,26.47
2023-06-10T19:28:53.485Z,26.38
2023-06-10T19:31:20.538Z,26.31
2023-06-10T19:33:47.289Z,26.30
2023-06-10T19:36:14.068Z,26.17
2023-06-10T19:38:41.052Z,26.06
2023-06-10T19:41:07.782Z,26.09
2023-06-10T19:43:34.417Z,25.98
2023-06-10T19:46:01.539Z,26.02
2023-06-10T19:48:28.268Z,25.95
2023-06-10T19:50:55.010Z,25.82
2023-06-10T19:53:21.584Z,25.86
2023-06-10T19:55:48.201Z,25.78
2023-06-10T19:58:14.937Z,25.74
2023-06-10T20:00:41.522Z,25.70
2023-06-10T20:03:08.295Z,25.63
2023-06-10T20:05:35.193Z,25.59
2023-06-10T20:08:02.277Z,25.58
2023-06-10T20:10:29.174Z,25.55
2023-06-10T20:12:56.324Z,25.49
2023-06-10T20:15:23.204Z,25.46
2023-06-10T20:17:53.052Z,25.48
2023-06-10T20:20:19.994Z,25.45
2023-06-10T20:22:47.440Z,25.48
2023-06-10T20:25:17.668Z,25.54
2023-06-10T20:27:44.442Z,25.34
2023-06-10T20:30:11.499Z,25.26
2023-06-10T20:32:38.415Z,25.21
2023-06-10T20:35:06.178Z,25.13
2023-06-10T20:37:33.075Z,25.17
2023-06-10T20:39:59.899Z,25.15
2023-06-10T20:42:27.415Z,25.11
2023-06-10T20:44:55.819Z,25.02
2023-06-10T20:47:23.024Z,24.91
2023-06-10T20:49:49.737Z,24.90
2023-06-10T20:52:19.791Z,24.89
2023-06-10T20:54:46.819Z,24.78
2023-06-10T20:57:13.877Z,24.72
2023-06-10T20:59:41.736Z,24.67
2023-06-10T21:02:12.560Z,24.65
2023-06-10T21:04:39.391Z,24.63
2023-06-10T21:07:07.457Z,24.61
2023-06-10T21:09:35.410Z,24.55
2023-06-10T21:12:02.138Z,24.40
2023-06-10T21:14:29.162Z,24.40
2023-06-10T21:16:56.004Z,24.27
2023-06-10T21:19:23.301Z,24.28
2023-06-10T21:21:50.803Z,24.32
2023-06-10T21:24:17.766Z,24.31
2023-06-10T21:26:45.244Z,24.36
2023-06-10T21:29:12.670Z,24.36
2023-06-10T21:31:39.745Z,24.39
2023-06-10T21:34:14.030Z,24.15
2023-06-10T21:36:48.245Z,24.14
2023-06-10T21:39:15.936Z,24.17
2023-06-10T21:41:42.940Z,24.19
2023-06-10T21:44:10.252Z,24.06
2023-06-10T21:46:38.808Z,24.06
2023-06-10T21:49:05.544Z,23.97
2023-06-10T21:51:32.247Z,23.86
2023-06-10T21:53:59.133Z,23.90
2023-06-10T21:56:27.671Z,23.74
2023-06-10T21:58:54.461Z,23.65
2023-06-10T22:01:21.496Z,23.66
2023-06-10T22:03:48.270Z,23.73
2023-06-10T22:06:15.699Z,23.57
2023-06-10T22:08:42.359Z,23.58
2023-06-10T22:11:10.406Z,23.52
2023-06-10T22:13:37.017Z,23.45
2023-06-10T22:16:03.777Z,23.44
2023-06-10T22:18:30.794Z,23.42
2023-06-10T22:20:57.422Z,23.46
2023-06-10T22:23:24.048Z,23.44
2023-06-10T22:25:50.937Z,23.37
2023-06-10T22:28:17.551Z,23.25
2023-06-10T22:30:44.543Z,23.37
2023-06-10T22:33:11.901Z,23.37
2023-06-10T22:35:38.652Z,23.41
2023-06-10T22:38:05.495Z,23.34
2023-06-10T22:40:32.095Z,23.29
2023-06-10T22:43:00.417Z,23.29
2023-06-10T22:45:27.172Z,23.29
2023-06-10T22:47:54.820Z,23.25
2023-06-10T22:50:21.668Z,23.26
2023-06-10T22:52:51.338Z,23.05
2023-06-10T22:55:18.104Z,23.07
2023-06-10T22:57:46.298Z,23.01
2023-06-10T23:00:16.750Z,23.06
2023-06-10T23:02:43.653Z,23.09
2023-06-10T23:05:12.263Z,23.18
2023-06-10T23:07:39.373Z,22.93
2023-06-10T23:10:07.090Z,22.97
2023-06-10T23:12:33.797Z,23.02
2023-06-10T23:15:00.533Z,22.79
2023-06-10T23:17:29.293Z,22.67
2023-06-10T23:19:58.055Z,22.77
2023-06-10T23:22:32.060Z,22.85
2023-06-10T23:25:01.906Z,22.77
2023-06-10T23:27:29.391Z,22.87
2023-06-10T23:29:59.903Z,23.04
2023-06-10T23:32:27.645Z,22.65
2023-06-10T23:34:54.602Z,22.60
2023-06-10T23:37:21.689Z,22.59
2023-06-10T23:39:49.509Z,22.52
2023-06-10T23:42:17.291Z,22.52
2023-06-10T23:44:44.538Z,22.39
2023-06-10T23:47:11.136Z,22.45
2023-06-10T23:49:37.809Z,22.40
2023-06-10T23:52:04.711Z,22.41
2023-06-10T23:54:31.569Z,22.44
2023-06-10T23:56:59.474Z,22.39
2023-06-10T23:59:26.512Z,22.51
